createdAt,value
2023-03-14T00:00:17.506Z,98412.41
2023-03-14T00:02:44.037Z,98404.13
2023-03-14T00:05:11.191Z,98399.50
2023-03-14T00:07:39.012Z,98412.19
2023-03-14T00:10:07.606Z,98411.34
2023-03-14T00:12:34.146Z,98409.00
2023-03-14T00:15:04.491Z,98414.75
2023-03-14T00:17:31.781Z,98405.09
2023-03-14T00:19:58.278Z,98401.53
2023-03-14T00:22:24.808Z,98395.66
2023-03-14T00:24:51.498Z,98401.75
2023-03-14T00:27:17.973Z,98386.56
2023-03-14T00:29:44.965Z,98394.53
2023-03-14T00:32:11.512Z,98401.78
2023-03-14T00:34:38.227Z,98395.50
2023-03-14T00:37:04.758Z,98378.53
2023-03-14T00:39:31.196Z,98385.34
2023-03-14T00:41:57.698Z,98385.59
2023-03-14T00:44:24.259Z,98390.19
2023-03-14T00:46:50.762Z,98382.09
2023-03-14T00:49:17.273Z,98378.97
2023-03-14T00:51:43.731Z,98383.63
2023-03-14T00:54:10.206Z,98379.97
2023-03-14T00:56:36.643Z,98372.28
2023-03-14T00:59:03.211Z,98369.53
2023-03-14T01:01:29.730Z,98367.72
2023-03-14T01:03:56.954Z,98361.69
2023-03-14T01:06:26.228Z,98363.88
2023-03-14T01:08:53.636Z,98359.88
2023-03-14T01:11:23.101Z,98345.75
2023-03-14T01:13:49.699Z,98350.81
2023-03-14T01:16:16.807Z,98348.31
2023-03-14T01:18:45.486Z,98368.09
2023-03-14T01:21:16.370Z,98353.44
2023-03-14T01:23:43.323Z,98347.31
2023-03-14T01:26:12.485Z,98358.97
2023-03-14T01:28:39.391Z,98366.16
2023-03-14T01:31:07.997Z,98375.28
2023-03-14T01:33:35.045Z,98371.22
2023-03-14T01:36:03.378Z,98374.53
2023-03-14T01:38:30.843Z,98369.94
2023-03-14T01:40:58.158Z,98382.94
2023-03-14T01:43:25.571Z,98382.03
2023-03-14T01:46:07.149Z,98375.75
2023-03-14T01:48:36.103Z,98363.38
2023-03-14T01:51:03.700Z,98349.72
2023-03-14T01:53:30.676Z,98362.41
2023-03-14T01:55:58.025Z,98352.59
2023-03-14T01:58:28.246Z,98343.06
2023-03-14T02:00:56.340Z,98330.06
2023-03-14T02:03:24.841Z,98315.22
2023-03-14T02:05:52.290Z,98323.53
2023-03-14T02:08:20.560Z,98321.09
2023-03-14T02:10:49.949Z,98306.03
2023-03-14T02:13:18.851Z,98291.31
2023-03-14T02:15:45.422Z,98298.03
2023-03-14T02:18:12.936Z,98308.16
2023-03-14T02:21:06.919Z,98315.91
2023-03-14T02:23:39.569Z,98313.53
2023-03-14T02:26:22.200Z,98302.97
2023-03-14T02:28:49.622Z,98294.88
2023-03-14T02:31:16.496Z,98298.72
2023-03-14T02:33:43.035Z,98294.56
2023-03-14T02:36:13.077Z,98292.44
2023-03-14T02:38:54.995Z,98279.19
2023-03-14T02:41:22.261Z,98267.16
2023-03-14T02:43:48.765Z,98271.84
2023-03-14T02:46:18.111Z,98260.72
2023-03-14T02:48:52.179Z,98258.44
2023-03-14T02:51:18.835Z,98255.25
2023-03-14T02:53:45.539Z,98259.28
2023-03-14T02:56:12.143Z,98257.16
2023-03-14T02:58:39.050Z,98255.53
2023-03-14T03:01:06.083Z,98250.09
2023-03-14T03:03:33.016Z,98249.78
2023-03-14T03:05:59.599Z,98260.56
2023-03-14T03:08:27.695Z,98257.97
2023-03-14T03:10:55.048Z,98255.69
2023-03-14T03:13:21.874Z,98260.06
2023-03-14T03:15:48.394Z,98248.28
2023-03-14T03:18:14.984Z,98256.44
2023-03-14T03:20:41.420Z,98255.06
2023-03-14T03:23:07.873Z,98247.25
2023-03-14T03:25:34.384Z,98247.31
2023-03-14T03:28:02.163Z,98252.47
2023-03-14T03:30:28.837Z,98249.34
2023-03-14T03:32:55.390Z,98256.66
2023-03-14T03:35:21.857Z,98243.81
2023-03-14T03:37:48.328Z,98236.94
2023-03-14T03:40:14.881Z,98235.50
2023-03-14T03:42:41.316Z,98231.34
2023-03-14T03:45:08.409Z,98235.25
2023-03-14T03:47:34.897Z,98231.66
2023-03-14T03:50:01.388Z,98236.47
2023-03-14T03:52:27.859Z,98249.09
2023-03-14T03:54:54.331Z,98262.75
2023-03-14T03:57:21.166Z,98270.88
2023-03-14T03:59:47.638Z,98261.34
2023-03-14T04:02:14.090Z,98253.13
2023-03-14T04:04:40.853Z,98251.25
2023-03-14T04:07:07.599Z,98230.31
2023-03-14T04:09:34.069Z,98245.75
2023-03-14T04:12:00.505Z,98244.09
2023-03-14T04:14:27.110Z,98252.13
2023-03-14T04:16:53.550Z,98234.56
2023-03-14T04:19:20.072Z,98237.81
2023-03-14T04:21:47.980Z,98236.13
2023-03-14T04:24:14.548Z,98241.78
2023-03-14T04:26:41.067Z,98239.75
2023-03-14T04:29:07.548Z,98244.94
2023-03-14T04:31:34.090Z,98257.66
2023-03-14T04:34:00.604Z,98261.16
2023-03-14T04:36:27.135Z,98247.44
2023-03-14T04:38:53.604Z,98250.53
2023-03-14T04:41:20.078Z,98252.38
2023-03-14T04:43:46.506Z,98252.03
2023-03-14T04:46:13.064Z,98254.59
2023-03-14T04:48:39.756Z,98243.91
2023-03-14T04:51:06.534Z,98242.91
2023-03-14T04:53:33.328Z,98234.69
2023-03-14T04:55:59.992Z,98218.91
2023-03-14T04:58:26.525Z,98222.09
2023-03-14T05:00:53.097Z,98234.78
2023-03-14T05:03:20.311Z,98219.78
2023-03-14T05:05:46.914Z,98218.81
2023-03-14T05:08:13.821Z,98212.97
2023-03-14T05:10:40.432Z,98206.03
2023-03-14T05:13:06.953Z,98199.53
2023-03-14T05:15:33.495Z,98201.44
2023-03-14T05:18:00.012Z,98197.50
2023-03-14T05:20:26.843Z,98190.38
2023-03-14T05:22:53.278Z,98178.69
2023-03-14T05:25:19.767Z,98186.47
2023-03-14T05:27:46.298Z,98176.50
2023-03-14T05:30:13.167Z,98185.16
2023-03-14T05:32:39.639Z,98177.13
2023-03-14T05:35:06.389Z,98166.69
2023-03-14T05:37:32.842Z,98161.69
2023-03-14T05:39:59.337Z,98165.88
2023-03-14T05:42:25.773Z,98163.34
2023-03-14T05:44:52.253Z,98158.03
2023-03-14T05:47:18.744Z,98157.50
2023-03-14T05:49:45.234Z,98156.03
2023-03-14T05:52:11.684Z,98155.66
2023-03-14T05:54:38.152Z,98163.47
2023-03-14T05:57:04.621Z,98153.31
2023-03-14T05:59:32.104Z,98162.94
2023-03-14T06:02:00.274Z,98162.31
2023-03-14T06:04:26.803Z,98157.44
2023-03-14T06:06:53.287Z,98169.94
2023-03-14T06:09:23.820Z,98164.91
2023-03-14T06:11:50.647Z,98151.16
2023-03-14T06:14:17.898Z,98151.22
2023-03-14T06:16:44.450Z,98157.19
2023-03-14T06:19:11.342Z,98149.63
2023-03-14T06:21:37.783Z,98156.59
2023-03-14T06:24:05.118Z,98152.44
2023-03-14T06:26:31.593Z,98157.94
2023-03-14T06:28:58.079Z,98159.94
2023-03-14T06:31:24.562Z,98153.19
2023-03-14T06:33:51.027Z,98153.31
2023-03-14T06:36:17.496Z,98166.03
2023-03-14T06:38:43.951Z,98163.81
2023-03-14T06:41:11.202Z,98153.34
2023-03-14T06:43:37.674Z,98148.28
2023-03-14T06:46:06.515Z,98168.78
2023-03-14T06:48:33.005Z,98164.91
2023-03-14T06:50:59.511Z,98162.22
2023-03-14T06:53:26.018Z,98173.38
2023-03-14T06:55:52.499Z,98165.53
2023-03-14T06:58:18.964Z,98166.22
2023-03-14T07:00:45.609Z,98173.88
2023-03-14T07:03:14.445Z,98179.94
2023-03-14T07:05:41.625Z,98168.00
2023-03-14T07:08:09.501Z,98182.03
2023-03-14T07:10:36.317Z,98185.72
2023-03-14T07:13:02.881Z,98177.66
2023-03-14T07:15:29.374Z,98181.50
2023-03-14T07:17:55.874Z,98177.38
2023-03-14T07:20:22.393Z,98180.09
2023-03-14T07:22:50.411Z,98190.50
2023-03-14T07:25:17.509Z,98190.91
2023-03-14T07:27:45.732Z,98203.50
2023-03-14T07:30:13.287Z,98193.78
2023-03-14T07:32:39.806Z,98197.75
2023-03-14T07:35:07.043Z,98193.19
2023-03-14T07:37:33.511Z,98188.78
2023-03-14T07:39:59.997Z,98192.06
2023-03-14T07:42:26.496Z,98193.00
2023-03-14T07:44:53.527Z,98198.72
2023-03-14T07:47:20.133Z,98209.13
2023-03-14T07:49:46.559Z,98201.06
2023-03-14T07:52:13.062Z,98210.34
2023-03-14T07:54:39.508Z,98215.09
2023-03-14T07:57:05.980Z,98213.03
2023-03-14T07:59:32.481Z,98224.59
2023-03-14T08:01:59.746Z,98219.41
2023-03-14T08:04:26.196Z,98215.59
2023-03-14T08:06:53.760Z,98224.50
2023-03-14T08:09:20.205Z,98202.84
2023-03-14T08:11:46.692Z,98220.72
2023-03-14T08:14:13.195Z,98213.94
2023-03-14T08:16:39.645Z,98221.69
2023-03-14T08:19:06.122Z,98224.00
2023-03-14T08:21:32.630Z,98214.72
2023-03-14T08:23:59.099Z,98215.84
2023-03-14T08:26:25.569Z,98221.91
2023-03-14T08:28:52.003Z,98214.66
2023-03-14T08:31:18.852Z,98217.25
2023-03-14T08:33:45.362Z,98221.47
2023-03-14T08:36:11.932Z,98226.22
2023-03-14T08:38:38.450Z,98224.88
2023-03-14T08:41:05.881Z,98231.81
2023-03-14T08:43:32.349Z,98231.91
2023-03-14T08:45:59.915Z,98233.75
2023-03-14T08:48:26.376Z,98245.19
2023-03-14T08:50:52.917Z,98246.88
2023-03-14T08:53:19.734Z,98246.28
2023-03-14T08:55:46.223Z,98237.22
2023-03-14T08:58:12.683Z,98247.88
2023-03-14T09:00:39.185Z,98253.97
2023-03-14T09:03:05.654Z,98254.72
2023-03-14T09:05:34.801Z,98259.16
2023-03-14T09:08:01.438Z,98265.56
2023-03-14T09:10:27.889Z,98291.50
2023-03-14T09:12:54.357Z,98333.97
2023-03-14T09:15:20.835Z,98351.00
2023-03-14T09:17:47.341Z,98341.00
2023-03-14T09:20:14.992Z,98355.31
2023-03-14T09:22:41.750Z,98370.19
2023-03-14T09:25:08.766Z,98388.91
2023-03-14T09:27:35.294Z,98408.38
2023-03-14T09:30:01.780Z,98423.03
2023-03-14T09:32:28.291Z,98445.56
2023-03-14T09:34:54.774Z,98448.09
2023-03-14T09:37:22.011Z,98457.72
2023-03-14T09:39:48.495Z,98475.66
2023-03-14T09:42:18.686Z,98476.41
2023-03-14T09:44:55.913Z,98483.19
2023-03-14T09:47:23.203Z,98497.91
2023-03-14T09:49:49.663Z,98506.53
2023-03-14T09:52:20.315Z,98518.59
2023-03-14T09:54:50.384Z,98524.47
2023-03-14T09:57:21.929Z,98547.84
2023-03-14T09:59:50.076Z,98555.63
2023-03-14T10:02:20.910Z,98576.28
2023-03-14T10:04:48.846Z,98578.88
2023-03-14T10:07:35.561Z,98584.84
2023-03-14T10:10:01.998Z,98619.16
2023-03-14T10:12:37.478Z,98615.84
2023-03-14T10:15:10.754Z,98630.50
2023-03-14T10:17:47.904Z,98640.84
2023-03-14T10:20:28.466Z,98645.09
2023-03-14T10:22:55.417Z,98656.31
2023-03-14T10:25:28.979Z,98647.69
2023-03-14T10:27:55.483Z,98663.19
2023-03-14T10:30:39.619Z,98683.03
2023-03-14T10:33:22.092Z,98685.63
2023-03-14T10:35:58.974Z,98686.41
2023-03-14T10:38:31.443Z,98712.03
2023-03-14T10:40:59.540Z,98724.28
2023-03-14T10:43:37.009Z,98724.34
2023-03-14T10:46:10.111Z,98728.63
2023-03-14T10:48:38.592Z,98746.53
2023-03-14T10:51:11.625Z,98744.13
2023-03-14T10:53:47.415Z,98762.97
2023-03-14T10:56:20.204Z,98762.91
2023-03-14T10:58:51.485Z,98769.06
2023-03-14T11:01:33.599Z,98770.75
2023-03-14T11:04:21.343Z,98762.31
2023-03-14T11:07:11.364Z,98770.78
2023-03-14T11:09:54.161Z,98774.44
2023-03-14T11:12:33.974Z,98783.81
2023-03-14T11:15:28.533Z,98795.09
2023-03-14T11:18:13.916Z,98800.28
2023-03-14T11:20:46.262Z,98815.81
2023-03-14T11:23:19.640Z,98815.78
2023-03-14T11:26:16.602Z,98820.97
2023-03-14T11:28:49.672Z,98836.16
2023-03-14T11:31:27.570Z,98839.94
2023-03-14T11:33:57.986Z,98847.69
2023-03-14T11:36:50.366Z,98863.22
2023-03-14T11:39:18.638Z,98870.06
2023-03-14T11:41:50.478Z,98865.81
2023-03-14T11:44:37.705Z,98870.09
2023-03-14T11:47:09.348Z,98888.22
2023-03-14T11:50:05.403Z,98881.31
2023-03-14T11:52:34.015Z,98894.97
2023-03-14T11:55:04.992Z,98906.31
2023-03-14T11:57:31.599Z,98913.25
2023-03-14T11:59:58.174Z,98914.97
2023-03-14T12:02:34.482Z,98927.88
2023-03-14T12:05:29.757Z,98933.06
2023-03-14T12:08:08.586Z,98921.81
2023-03-14T12:10:40.675Z,98913.22
2023-03-14T12:13:12.007Z,98921.84
2023-03-14T12:15:50.482Z,98914.94
2023-03-14T12:18:43.594Z,98914.97
2023-03-14T12:21:13.618Z,98927.06
2023-03-14T12:23:52.322Z,98932.25
2023-03-14T12:26:24.164Z,98937.38
2023-03-14T12:29:00.307Z,98947.75
2023-03-14T12:31:29.641Z,98949.47
2023-03-14T12:34:04.559Z,98947.72
2023-03-14T12:37:02.577Z,98949.44
2023-03-14T12:39:56.973Z,98968.41
2023-03-14T12:42:45.713Z,98966.69
2023-03-14T12:45:28.961Z,98961.50
2023-03-14T12:48:25.088Z,98974.47
2023-03-14T12:51:03.122Z,98976.22
2023-03-14T12:53:35.733Z,98988.28
2023-03-14T12:56:29.752Z,99007.19
2023-03-14T12:59:15.478Z,99011.56
2023-03-14T13:01:48.680Z,99025.34
2023-03-14T13:04:16.069Z,99033.16
2023-03-14T13:06:55.180Z,99028.84
2023-03-14T13:09:33.914Z,99060.63
2023-03-14T13:12:15.190Z,99059.84
2023-03-14T13:14:49.566Z,99070.31
2023-03-14T13:17:34.498Z,99073.75
2023-03-14T13:20:28.768Z,99090.75
2023-03-14T13:22:55.392Z,99091.72
2023-03-14T13:25:23.652Z,99089.84
2023-03-14T13:27:56.162Z,99096.81
2023-03-14T13:30:28.943Z,99102.97
2023-03-14T13:32:56.559Z,99114.34
2023-03-14T13:35:24.532Z,99111.78
2023-03-14T13:38:16.090Z,99125.53
2023-03-14T13:40:45.012Z,99140.91
2023-03-14T13:43:16.056Z,99138.47
2023-03-14T13:45:49.499Z,99154.84
2023-03-14T13:48:16.721Z,99163.44
2023-03-14T13:51:16.978Z,99155.44
2023-03-14T13:53:54.636Z,99174.38
2023-03-14T13:56:32.968Z,99191.00
2023-03-14T13:58:59.565Z,99190.88
2023-03-14T14:01:28.204Z,99191.66
2023-03-14T14:03:57.069Z,99202.03
2023-03-14T14:06:31.804Z,99207.31
2023-03-14T14:09:02.141Z,99217.44
2023-03-14T14:11:53.757Z,99223.75
2023-03-14T14:14:40.371Z,99223.41
2023-03-14T14:17:12.187Z,99220.19
2023-03-14T14:19:39.870Z,99241.56
2023-03-14T14:22:07.773Z,99251.06
2023-03-14T14:24:35.525Z,99248.56
2023-03-14T14:27:18.137Z,99252.31
2023-03-14T14:29:46.652Z,99250.41
2023-03-14T14:32:15.716Z,99254.00
2023-03-14T14:34:50.643Z,99267.81
2023-03-14T14:37:22.799Z,99278.06
2023-03-14T14:39:50.198Z,99263.50
2023-03-14T14:42:18.707Z,99273.72
2023-03-14T14:44:45.625Z,99286.75
2023-03-14T14:47:16.718Z,99297.22
2023-03-14T14:49:43.188Z,99301.56
2023-03-14T14:52:19.407Z,99299.47
2023-03-14T14:54:49.582Z,99327.03
2023-03-14T14:57:31.404Z,99329.78
2023-03-14T15:00:05.071Z,99324.41
2023-03-14T15:02:40.980Z,99325.03
2023-03-14T15:05:13.812Z,99342.06
2023-03-14T15:07:40.324Z,99342.63
2023-03-14T15:10:07.748Z,99346.16
2023-03-14T15:12:34.214Z,99350.19
2023-03-14T15:15:00.732Z,99356.31
2023-03-14T15:17:27.320Z,99356.38
2023-03-14T15:19:53.782Z,99362.63
2023-03-14T15:22:21.141Z,99376.84
2023-03-14T15:24:47.587Z,99376.63
2023-03-14T15:27:15.857Z,99392.06
2023-03-14T15:29:42.593Z,99391.81
2023-03-14T15:32:15.424Z,99383.53
2023-03-14T15:34:42.030Z,99395.47
2023-03-14T15:37:13.518Z,99395.03
2023-03-14T15:39:40.953Z,99403.63
2023-03-14T15:42:07.691Z,99419.34
2023-03-14T15:44:34.151Z,99411.00
2023-03-14T15:47:00.725Z,99424.44
2023-03-14T15:49:27.183Z,99422.03
2023-03-14T15:51:54.097Z,99432.47
2023-03-14T15:54:21.330Z,99426.84
2023-03-14T15:56:48.027Z,99436.00
2023-03-14T15:59:14.507Z,99440.91
2023-03-14T16:01:41.018Z,99445.94
2023-03-14T16:04:07.515Z,99459.84
2023-03-14T16:06:33.954Z,99465.97
2023-03-14T16:09:00.700Z,99477.91
2023-03-14T16:11:27.242Z,99469.03
2023-03-14T16:13:53.691Z,99496.41
2023-03-14T16:16:20.290Z,99496.75
2023-03-14T16:18:46.994Z,99503.31
2023-03-14T16:21:19.079Z,99515.19
2023-03-14T16:23:46.016Z,99525.94
2023-03-14T16:26:17.869Z,99531.84
2023-03-14T16:28:45.716Z,99536.31
2023-03-14T16:31:15.382Z,99543.91
2023-03-14T16:33:41.927Z,99556.34
2023-03-14T16:36:12.303Z,99555.75
2023-03-14T16:38:40.714Z,99568.28
2023-03-14T16:41:10.026Z,99581.19
2023-03-14T16:43:39.807Z,99580.94
2023-03-14T16:46:08.669Z,99592.03
2023-03-14T16:48:35.245Z,99594.91
2023-03-14T16:51:01.711Z,99594.84
2023-03-14T16:53:30.093Z,99602.94
2023-03-14T16:55:57.134Z,99614.91
2023-03-14T16:58:23.651Z,99608.88
2023-03-14T17:00:50.143Z,99617.56
2023-03-14T17:03:17.694Z,99609.34
2023-03-14T17:05:52.119Z,99627.53
2023-03-14T17:08:20.029Z,99630.75
2023-03-14T17:10:47.106Z,99634.84
2023-03-14T17:13:13.989Z,99653.25
2023-03-14T17:15:45.794Z,99648.41
2023-03-14T17:18:12.696Z,99657.63
2023-03-14T17:20:41.175Z,99646.88
2023-03-14T17:23:08.551Z,99659.66
2023-03-14T17:25:36.429Z,99665.09
2023-03-14T17:28:03.020Z,99671.06
2023-03-14T17:30:29.473Z,99683.38
2023-03-14T17:32:57.421Z,99689.94
2023-03-14T17:35:24.653Z,99698.63
2023-03-14T17:37:51.235Z,99695.16
2023-03-14T17:40:17.850Z,99712.19
2023-03-14T17:42:44.336Z,99716.69
2023-03-14T17:45:11.276Z,99725.81
2023-03-14T17:47:37.787Z,99734.81
2023-03-14T17:50:05.418Z,99743.41
2023-03-14T17:52:33.451Z,99749.38
2023-03-14T17:54:59.983Z,99752.25
2023-03-14T17:57:26.602Z,99740.75
2023-03-14T17:59:56.132Z,99753.69
2023-03-14T18:02:23.929Z,99765.03
2023-03-14T18:04:52.276Z,99754.63
2023-03-14T18:07:20.720Z,99766.19
2023-03-14T18:09:47.504Z,99768.44
2023-03-14T18:12:14.293Z,99785.50
2023-03-14T18:14:44.485Z,99788.28
2023-03-14T18:17:15.753Z,99797.75
2023-03-14T18:19:43.398Z,99805.66
2023-03-14T18:22:12.131Z,99825.31
2023-03-14T18:24:39.264Z,99821.34
2023-03-14T18:27:06.480Z,99800.19
2023-03-14T18:29:37.085Z,99823.56
2023-03-14T18:32:04.113Z,99843.53
2023-03-14T18:34:34.348Z,99848.50
2023-03-14T18:37:02.084Z,99843.94
2023-03-14T18:39:29.183Z,99853.00
2023-03-14T18:42:00.003Z,99856.28
2023-03-14T18:44:27.249Z,99862.63
2023-03-14T18:46:55.787Z,99858.66
2023-03-14T18:49:23.521Z,99869.38
2023-03-14T18:51:51.381Z,99870.66
2023-03-14T18:54:18.585Z,99874.09
2023-03-14T18:56:45.350Z,99871.84
2023-03-14T18:59:12.228Z,99870.22
2023-03-14T19:01:39.111Z,99878.97
2023-03-14T19:04:06.610Z,99885.19
2023-03-14T19:06:33.531Z,99876.13
2023-03-14T19:09:01.479Z,99893.63
2023-03-14T19:11:28.312Z,99889.13
2023-03-14T19:13:55.128Z,99891.66
2023-03-14T19:16:22.565Z,99895.84
2023-03-14T19:18:49.073Z,99896.63
2023-03-14T19:21:29.252Z,99904.84
2023-03-14T19:23:55.940Z,99906.31
2023-03-14T19:26:22.787Z,99913.66
2023-03-14T19:28:49.284Z,99921.88
2023-03-14T19:31:15.847Z,99929.00
2023-03-14T19:33:42.620Z,99940.41
2023-03-14T19:36:22.691Z,99939.47
2023-03-14T19:38:50.330Z,99946.53
2023-03-14T19:41:17.426Z,99947.13
2023-03-14T19:43:43.894Z,99955.09
2023-03-14T19:46:10.538Z,99963.41
2023-03-14T19:48:37.648Z,99967.84
2023-03-14T19:51:04.417Z,99967.69
2023-03-14T19:53:31.464Z,99978.47
2023-03-14T19:55:58.067Z,99980.50
2023-03-14T19:58:24.964Z,99980.06
2023-03-14T20:00:51.647Z,99989.59
2023-03-14T20:03:18.254Z,99991.09
2023-03-14T20:05:44.858Z,99999.78
2023-03-14T20:08:11.642Z,100004.81
2023-03-14T20:10:38.390Z,99997.91
2023-03-14T20:13:15.629Z,100004.09
2023-03-14T20:15:46.967Z,100005.41
2023-03-14T20:18:13.765Z,100005.16
2023-03-14T20:20:43.408Z,100019.22
2023-03-14T20:23:10.358Z,100013.53
2023-03-14T20:25:37.826Z,100020.63
2023-03-14T20:28:05.154Z,100019.53
2023-03-14T20:30:31.999Z,100029.97
2023-03-14T20:32:58.657Z,100029.50
2023-03-14T20:35:25.225Z,100028.63
2023-03-14T20:37:56.229Z,100033.19
2023-03-14T20:40:24.249Z,100041.06
2023-03-14T20:42:51.538Z,100044.59
2023-03-14T20:45:18.522Z,100054.66
2023-03-14T20:47:45.056Z,100052.53
2023-03-14T20:50:12.687Z,100062.66
2023-03-14T20:52:39.223Z,100064.59
2023-03-14T20:55:06.769Z,100065.72
2023-03-14T20:57:33.401Z,100081.22
2023-03-14T21:00:00.145Z,100085.81
2023-03-14T21:02:26.645Z,100087.28
2023-03-14T21:04:53.395Z,100087.53
2023-03-14T21:07:20.322Z,100101.44
2023-03-14T21:09:46.896Z,100107.13
2023-03-14T21:12:13.338Z,100104.06
2023-03-14T21:14:40.537Z,100105.88
2023-03-14T21:17:07.039Z,100111.75
2023-03-14T21:19:33.625Z,100129.22
2023-03-14T21:22:02.077Z,100123.75
2023-03-14T21:24:29.526Z,100130.84
2023-03-14T21:26:56.203Z,100126.06
2023-03-14T21:29:23.760Z,100136.09
2023-03-14T21:31:50.592Z,100128.19
2023-03-14T21:34:17.850Z,100127.53
2023-03-14T21:36:44.428Z,100135.56
2023-03-14T21:39:10.930Z,100136.25
2023-03-14T21:41:37.618Z,100130.00
2023-03-14T21:44:04.278Z,100143.34
2023-03-14T21:46:30.913Z,100144.53
2023-03-14T21:48:57.590Z,100151.44
2023-03-14T21:51:30.042Z,100151.50
2023-03-14T21:53:57.055Z,100158.94
2023-03-14T21:56:27.065Z,100165.16
2023-03-14T21:58:59.216Z,100169.91
2023-03-14T22:01:25.751Z,100169.47
2023-03-14T22:03:53.548Z,100177.06
2023-03-14T22:06:20.899Z,100172.91
2023-03-14T22:08:47.730Z,100185.91
2023-03-14T22:11:14.881Z,100183.72
2023-03-14T22:13:41.350Z,100183.63
2023-03-14T22:16:08.344Z,100184.88
2023-03-14T22:18:34.931Z,100188.38
2023-03-14T22:21:01.673Z,100196.81
2023-03-14T22:23:28.298Z,100194.72
2023-03-14T22:25:54.799Z,100205.47
2023-03-14T22:28:24.140Z,100198.47
2023-03-14T22:30:51.601Z,100200.09
2023-03-14T22:33:19.122Z,100195.16
2023-03-14T22:35:53.184Z,100201.03
2023-03-14T22:38:20.023Z,100215.53
2023-03-14T22:40:53.861Z,100213.00
2023-03-14T22:43:20.534Z,100212.66
2023-03-14T22:45:47.459Z,100224.53
2023-03-14T22:48:15.273Z,100229.13
2023-03-14T22:50:43.625Z,100227.59
2023-03-14T22:53:13.132Z,100227.78
2023-03-14T22:55:39.615Z,100237.09
2023-03-14T22:58:06.365Z,100232.63
2023-03-14T23:00:33.701Z,100241.06
2023-03-14T23:03:00.879Z,100239.44
2023-03-14T23:05:27.585Z,100246.25
2023-03-14T23:07:54.179Z,100247.22
2023-03-14T23:10:20.931Z,100236.97
2023-03-14T23:12:47.512Z,100247.53
2023-03-14T23:15:17.388Z,100238.44
2023-03-14T23:17:45.499Z,100241.53
2023-03-14T23:20:12.843Z,100252.63
2023-03-14T23:22:39.307Z,100245.91
2023-03-14T23:25:06.797Z,100264.09
2023-03-14T23:27:33.846Z,100257.19
2023-03-14T23:30:00.427Z,100260.41
2023-03-14T23:32:28.040Z,100261.56
2023-03-14T23:34:55.126Z,100266.56
2023-03-14T23:37:23.468Z,100255.13
2023-03-14T23:39:50.321Z,100267.53
2023-03-14T23:42:17.035Z,100266.78
2023-03-14T23:44:43.903Z,100272.25
2023-03-14T23:47:10.432Z,100278.06
2023-03-14T23:49:36.969Z,100278.69
2023-03-14T23:52:03.663Z,100279.47
2023-03-14T23:54:30.134Z,100291.84
2023-03-14T23:56:56.631Z,100292.03
2023-03-14T23:59:23.087Z,100302.16
